createdAt,value
2019-02-22T00:02:37.885Z,98.76
2019-02-22T00:05:09.151Z,98.91
2019-02-22T00:07:40.261Z,98.83
2019-02-22T00:10:11.438Z,99.09
2019-02-22T00:12:43.135Z,99.26
2019-02-22T00:15:14.217Z,99.42
2019-02-22T00:17:46.297Z,99.50
2019-02-22T00:20:17.258Z,99.58
2019-02-22T00:22:48.227Z,99.60
2019-02-22T00:25:18.905Z,99.62
2019-02-22T00:27:50.875Z,99.67
2019-02-22T00:30:21.612Z,99.67
2019-02-22T00:32:53.307Z,99.37
2019-02-22T00:35:24.038Z,99.16
2019-02-22T00:37:54.735Z,99.24
2019-02-22T00:40:25.488Z,99.30
2019-02-22T00:42:56.019Z,99.20
2019-02-22T00:45:26.839Z,99.22
2019-02-22T00:48:00.406Z,99.31
2019-02-22T00:50:31.331Z,99.38
2019-02-22T00:53:02.164Z,99.46
2019-02-22T00:55:34.195Z,99.49
2019-02-22T00:58:05.850Z,99.50
2019-02-22T01:00:36.443Z,99.48
2019-02-22T01:03:07.417Z,99.67
2019-02-22T01:05:40.757Z,99.62
2019-02-22T01:08:12.189Z,99.69
2019-02-22T01:10:42.880Z,99.71
2019-02-22T01:13:13.340Z,99.72
2019-02-22T01:15:44.019Z,99.83
2019-02-22T01:18:16.258Z,99.96
2019-02-22T01:20:54.384Z,100.00
2019-02-22T01:23:20.844Z,100.00
2019-02-22T01:25:51.360Z,100.00
2019-02-22T01:28:23.289Z,100.00
2019-02-22T01:30:54.321Z,100.00
2019-02-22T01:33:26.330Z,100.00
2019-02-22T01:35:57.854Z,100.00
2019-02-22T01:38:28.247Z,100.00
2019-02-22T01:40:58.875Z,100.00
2019-02-22T01:43:29.550Z,100.00
2019-02-22T01:46:01.126Z,100.00
2019-02-22T01:48:31.554Z,100.00
2019-02-22T01:51:02.320Z,100.00
2019-02-22T01:53:33.372Z,100.00
2019-02-22T01:56:05.580Z,100.00
2019-02-22T01:58:48.009Z,100.00
2019-02-22T02:01:09.552Z,100.00
2019-02-22T02:03:40.462Z,100.00
2019-02-22T02:06:10.856Z,100.00
2019-02-22T02:08:42.461Z,100.00
2019-02-22T02:11:13.558Z,100.00
2019-02-22T02:13:45.242Z,100.00
2019-02-22T02:16:15.814Z,100.00
2019-02-22T02:18:47.618Z,100.00
2019-02-22T02:21:18.310Z,100.00
2019-02-22T02:23:51.453Z,100.00
2019-02-22T02:26:22.070Z,100.00
2019-02-22T02:28:54.933Z,100.00
2019-02-22T02:31:25.422Z,100.00
2019-02-22T02:33:56.520Z,100.00
2019-02-22T02:36:29.248Z,100.00
2019-02-22T02:39:00.027Z,100.00
2019-02-22T02:41:30.655Z,100.00
2019-02-22T02:44:01.219Z,100.00
2019-02-22T02:46:31.907Z,100.00
2019-02-22T02:49:02.453Z,100.00
2019-02-22T02:51:34.743Z,100.00
2019-02-22T02:54:06.110Z,100.00
2019-02-22T02:56:39.266Z,100.00
2019-02-22T02:59:09.836Z,100.00
2019-02-22T03:01:42.523Z,100.00
2019-02-22T03:04:13.210Z,100.00
2019-02-22T03:07:02.825Z,100.00
2019-02-22T03:09:34.118Z,100.00
2019-02-22T03:12:05.810Z,100.00
2019-02-22T03:14:37.731Z,100.00
2019-02-22T03:17:08.201Z,100.00
2019-02-22T03:19:40.895Z,100.00
2019-02-22T03:22:12.327Z,100.00
2019-02-22T03:24:43.535Z,100.00
2019-02-22T03:27:14.259Z,100.00
2019-02-22T03:29:46.365Z,100.00
2019-02-22T03:32:19.396Z,100.00
2019-02-22T03:34:51.430Z,100.00
2019-02-22T03:37:22.433Z,100.00
2019-02-22T03:39:53.134Z,100.00
2019-02-22T03:42:24.226Z,100.00
2019-02-22T03:44:54.905Z,100.00
2019-02-22T03:47:25.647Z,100.00
2019-02-22T03:49:56.762Z,100.00
2019-02-22T03:52:48.981Z,100.00
2019-02-22T03:55:19.834Z,100.00
2019-02-22T03:57:50.292Z,98.90
2019-02-22T04:00:21.283Z,97.55
2019-02-22T04:02:51.853Z,96.83
2019-02-22T04:05:22.362Z,96.52
2019-02-22T04:07:57.043Z,96.07
2019-02-22T04:10:27.492Z,96.06
2019-02-22T04:12:58.491Z,95.75
2019-02-22T04:15:29.150Z,95.55
2019-02-22T04:17:59.770Z,95.67
2019-02-22T04:20:32.126Z,95.08
2019-02-22T04:23:02.543Z,92.94
2019-02-22T04:25:33.317Z,92.16
2019-02-22T04:28:04.222Z,91.12
2019-02-22T04:30:37.851Z,90.99
2019-02-22T04:33:07.572Z,92.36
2019-02-22T04:35:38.762Z,93.44
2019-02-22T04:38:09.163Z,93.24
2019-02-22T04:40:40.333Z,93.97
2019-02-22T04:43:11.468Z,93.66
2019-02-22T04:45:43.585Z,94.30
2019-02-22T04:48:14.602Z,94.36
2019-02-22T04:50:45.364Z,94.18
2019-02-22T04:53:15.864Z,93.06
2019-02-22T04:55:46.687Z,93.11
2019-02-22T04:58:17.502Z,93.42
2019-02-22T05:00:48.268Z,93.94
2019-02-22T05:03:18.911Z,94.20
2019-02-22T05:05:49.765Z,92.19
2019-02-22T05:08:20.532Z,91.37
2019-02-22T05:10:51.371Z,91.60
2019-02-22T05:13:22.559Z,92.53
2019-02-22T05:15:53.219Z,92.56
2019-02-22T05:18:24.615Z,92.57
2019-02-22T05:20:55.536Z,92.64
2019-02-22T05:23:28.597Z,92.72
2019-02-22T05:25:59.355Z,92.67
2019-02-22T05:28:31.111Z,93.09
2019-02-22T05:31:01.815Z,93.92
2019-02-22T05:33:32.749Z,94.45
2019-02-22T05:36:03.639Z,94.66
2019-02-22T05:38:34.394Z,94.75
2019-02-22T05:41:06.222Z,94.18
2019-02-22T05:43:36.863Z,93.96
2019-02-22T05:46:07.743Z,94.03
2019-02-22T05:48:38.955Z,94.56
2019-02-22T05:51:09.488Z,95.10
2019-02-22T05:53:40.225Z,95.12
2019-02-22T05:56:10.765Z,94.92
2019-02-22T05:58:43.104Z,93.73
2019-02-22T06:01:13.546Z,92.05
2019-02-22T06:03:44.236Z,91.45
2019-02-22T06:06:16.154Z,91.37
2019-02-22T06:08:46.677Z,91.79
2019-02-22T06:11:17.079Z,92.31
2019-02-22T06:13:47.664Z,92.47
2019-02-22T06:16:18.546Z,92.95
2019-02-22T06:18:49.036Z,93.30
2019-02-22T06:21:20.457Z,93.42
2019-02-22T06:23:52.171Z,93.62
2019-02-22T06:26:23.776Z,93.79
2019-02-22T06:28:54.660Z,94.04
2019-02-22T06:31:25.069Z,93.73
2019-02-22T06:33:55.675Z,92.18
2019-02-22T06:36:26.537Z,91.25
2019-02-22T06:38:57.089Z,89.86
2019-02-22T06:41:27.699Z,88.64
2019-02-22T06:43:59.851Z,88.34
2019-02-22T06:46:30.891Z,88.49
2019-02-22T06:49:01.289Z,88.80
2019-02-22T06:51:31.595Z,87.77
2019-02-22T06:54:02.081Z,86.57
2019-02-22T06:56:32.854Z,86.18
2019-02-22T06:59:03.748Z,85.15
2019-02-22T07:01:34.760Z,84.13
2019-02-22T07:04:06.278Z,83.94
2019-02-22T07:06:36.658Z,84.18
2019-02-22T07:09:07.583Z,83.57
2019-02-22T07:11:51.841Z,83.80
2019-02-22T07:14:22.595Z,83.95
2019-02-22T07:16:53.115Z,84.16
2019-02-22T07:19:23.609Z,83.44
2019-02-22T07:21:54.122Z,81.99
2019-02-22T07:24:24.492Z,81.74
2019-02-22T07:26:55.311Z,81.74
2019-02-22T07:29:25.654Z,80.02
2019-02-22T07:32:05.327Z,80.02
2019-02-22T07:34:28.669Z,78.84
2019-02-22T07:37:00.164Z,79.60
2019-02-22T07:39:30.526Z,78.81
2019-02-22T07:42:01.056Z,79.70
2019-02-22T07:44:31.999Z,80.31
2019-02-22T07:47:02.759Z,80.26
2019-02-22T07:49:33.192Z,79.86
2019-02-22T07:52:03.678Z,80.11
2019-02-22T07:54:34.187Z,80.26
2019-02-22T07:57:04.634Z,80.38
2019-02-22T07:59:35.090Z,80.76
2019-02-22T08:02:07.539Z,80.94
2019-02-22T08:04:38.561Z,81.08
2019-02-22T08:07:09.041Z,80.83
2019-02-22T08:09:39.895Z,80.42
2019-02-22T08:12:10.362Z,80.23
2019-02-22T08:14:40.973Z,79.43
2019-02-22T08:17:11.436Z,78.60
2019-02-22T08:19:42.648Z,78.20
2019-02-22T08:22:13.498Z,78.46
2019-02-22T08:24:44.217Z,78.00
2019-02-22T08:27:15.520Z,76.49
2019-02-22T08:29:46.295Z,75.44
2019-02-22T08:32:16.749Z,74.00
2019-02-22T08:34:47.705Z,74.16
2019-02-22T08:37:18.229Z,73.97
2019-02-22T08:39:58.250Z,74.31
2019-02-22T08:42:21.638Z,72.86
2019-02-22T08:44:52.046Z,72.62
2019-02-22T08:47:22.921Z,71.29
2019-02-22T08:49:53.532Z,68.74
2019-02-22T08:52:24.315Z,68.86
2019-02-22T08:54:54.993Z,67.48
2019-02-22T08:57:25.880Z,69.09
2019-02-22T08:59:56.486Z,69.44
2019-02-22T09:02:27.329Z,69.69
2019-02-22T09:04:58.121Z,68.75
2019-02-22T09:07:29.016Z,68.68
2019-02-22T09:10:01.091Z,69.36
2019-02-22T09:12:31.782Z,68.04
2019-02-22T09:15:02.426Z,67.38
2019-02-22T09:17:33.545Z,66.54
2019-02-22T09:20:04.337Z,65.18
2019-02-22T09:22:36.468Z,64.99
2019-02-22T09:25:07.160Z,65.27
2019-02-22T09:27:38.359Z,65.58
2019-02-22T09:30:10.141Z,65.49
2019-02-22T09:32:41.183Z,64.89
2019-02-22T09:35:12.030Z,64.80
2019-02-22T09:37:42.734Z,66.29
2019-02-22T09:40:14.852Z,66.98
2019-02-22T09:42:45.610Z,67.19
2019-02-22T09:45:16.313Z,65.84
2019-02-22T09:47:46.783Z,65.50
2019-02-22T09:50:17.690Z,63.82
2019-02-22T09:52:48.131Z,62.63
2019-02-22T09:55:19.259Z,62.29
2019-02-22T09:57:49.677Z,63.28
2019-02-22T10:00:20.334Z,61.27
2019-02-22T10:02:50.662Z,61.24
2019-02-22T10:05:21.840Z,61.30
2019-02-22T10:07:52.470Z,61.92
2019-02-22T10:10:24.160Z,61.42
2019-02-22T10:12:54.753Z,62.50
2019-02-22T10:15:25.180Z,61.38
2019-02-22T10:17:56.676Z,59.45
2019-02-22T10:20:27.139Z,60.55
2019-02-22T10:22:59.114Z,60.32
2019-02-22T10:25:29.858Z,61.45
2019-02-22T10:28:01.521Z,59.61
2019-02-22T10:30:31.969Z,59.61
2019-02-22T10:33:02.455Z,59.75
2019-02-22T10:35:33.086Z,59.10
2019-02-22T10:38:04.076Z,58.63
2019-02-22T10:40:35.058Z,56.52
2019-02-22T10:43:06.619Z,57.02
2019-02-22T10:45:37.556Z,58.47
2019-02-22T10:48:08.025Z,59.17
2019-02-22T10:50:38.648Z,57.68
2019-02-22T10:53:09.199Z,56.32
2019-02-22T10:55:41.700Z,56.66
2019-02-22T10:58:12.334Z,55.17
2019-02-22T11:00:43.207Z,54.55
2019-02-22T11:03:13.826Z,55.95
2019-02-22T11:05:44.231Z,57.00
2019-02-22T11:08:15.512Z,58.84
2019-02-22T11:10:46.175Z,59.40
2019-02-22T11:13:16.645Z,59.28
2019-02-22T11:15:47.132Z,58.12
2019-02-22T11:18:19.870Z,56.72
2019-02-22T11:20:50.218Z,57.13
2019-02-22T11:23:20.694Z,57.18
2019-02-22T11:25:51.782Z,56.82
2019-02-22T11:28:22.203Z,57.94
2019-02-22T11:30:53.245Z,55.19
2019-02-22T11:33:25.189Z,56.49
2019-02-22T11:35:56.493Z,53.84
2019-02-22T11:38:27.182Z,56.40
2019-02-22T11:40:59.378Z,56.02
2019-02-22T11:43:31.406Z,55.54
2019-02-22T11:46:03.247Z,54.46
2019-02-22T11:48:33.751Z,54.47
2019-02-22T11:51:05.025Z,55.29
2019-02-22T11:53:36.054Z,54.78
2019-02-22T11:56:10.080Z,55.42
2019-02-22T11:58:40.892Z,56.04
2019-02-22T12:01:11.770Z,54.63
2019-02-22T12:03:44.238Z,53.10
2019-02-22T12:06:14.643Z,52.99
2019-02-22T12:08:47.051Z,52.19
2019-02-22T12:11:17.702Z,52.47
2019-02-22T12:13:51.606Z,50.80
2019-02-22T12:16:23.491Z,50.57
2019-02-22T12:18:54.586Z,49.25
2019-02-22T12:21:25.433Z,48.78
2019-02-22T12:23:56.035Z,46.63
2019-02-22T12:26:27.271Z,45.06
2019-02-22T12:28:59.585Z,43.35
2019-02-22T12:31:30.441Z,41.35
2019-02-22T12:34:01.136Z,37.36
2019-02-22T12:36:35.312Z,35.08
2019-02-22T12:39:07.115Z,32.77
2019-02-22T12:41:39.290Z,31.42
2019-02-22T12:44:09.868Z,32.06
2019-02-22T12:46:40.558Z,33.96
2019-02-22T12:49:11.293Z,32.27
2019-02-22T12:51:41.921Z,30.73
2019-02-22T12:54:12.586Z,31.94
2019-02-22T12:56:57.108Z,31.21
2019-02-22T12:59:16.546Z,32.40
2019-02-22T13:01:50.090Z,34.39
2019-02-22T13:04:20.815Z,33.21
2019-02-22T13:06:53.053Z,35.17
2019-02-22T13:09:24.527Z,34.01
2019-02-22T13:11:55.315Z,34.75
2019-02-22T13:14:25.739Z,33.61
2019-02-22T13:16:57.708Z,32.70
2019-02-22T13:19:30.048Z,33.92
2019-02-22T13:22:01.522Z,35.05
2019-02-22T13:24:32.122Z,35.14
2019-02-22T13:27:04.192Z,35.88
2019-02-22T13:29:34.513Z,36.35
2019-02-22T13:32:07.183Z,37.09
2019-02-22T13:34:37.500Z,36.91
2019-02-22T13:37:09.476Z,36.03
2019-02-22T13:39:41.460Z,33.86
2019-02-22T13:42:11.932Z,34.86
2019-02-22T13:44:43.518Z,33.47
2019-02-22T13:47:14.766Z,33.76
2019-02-22T13:49:45.135Z,34.73
2019-02-22T13:52:18.648Z,34.58
2019-02-22T13:54:49.901Z,35.42
2019-02-22T13:57:22.163Z,34.31
2019-02-22T13:59:52.900Z,32.92
2019-02-22T14:02:23.426Z,30.46
2019-02-22T14:04:56.873Z,29.63
2019-02-22T14:07:28.607Z,28.97
2019-02-22T14:09:59.351Z,30.06
2019-02-22T14:12:31.014Z,30.86
2019-02-22T14:15:01.799Z,33.27
2019-02-22T14:17:33.779Z,35.01
2019-02-22T14:20:04.294Z,34.51
2019-02-22T14:22:35.348Z,33.19
2019-02-22T14:25:05.908Z,33.59
2019-02-22T14:27:37.132Z,33.42
2019-02-22T14:30:08.900Z,32.13
2019-02-22T14:32:42.310Z,32.13
2019-02-22T14:35:12.816Z,31.29
2019-02-22T14:37:43.370Z,31.32
2019-02-22T14:40:15.649Z,29.42
2019-02-22T14:42:46.570Z,29.39
2019-02-22T14:45:17.825Z,30.37
2019-02-22T14:47:48.662Z,30.61
2019-02-22T14:50:19.299Z,31.43
2019-02-22T14:52:50.119Z,31.16
2019-02-22T14:55:22.328Z,31.74
2019-02-22T14:57:55.131Z,31.78
2019-02-22T15:00:27.631Z,32.18
2019-02-22T15:02:58.475Z,32.19
2019-02-22T15:05:29.325Z,31.29
2019-02-22T15:07:59.784Z,30.88
2019-02-22T15:10:30.463Z,30.52
2019-02-22T15:13:01.419Z,31.20
2019-02-22T15:15:48.186Z,30.38
2019-02-22T15:18:18.691Z,30.84
2019-02-22T15:20:49.018Z,31.93
2019-02-22T15:23:19.514Z,32.09
2019-02-22T15:25:49.824Z,32.45
2019-02-22T15:28:20.642Z,33.61
2019-02-22T15:30:51.531Z,35.78
2019-02-22T15:33:21.884Z,36.44
2019-02-22T15:35:52.385Z,35.35
2019-02-22T15:38:22.965Z,34.49
2019-02-22T15:40:53.785Z,34.05
2019-02-22T15:43:24.723Z,33.57
2019-02-22T15:45:55.248Z,34.89
2019-02-22T15:48:25.789Z,34.97
2019-02-22T15:50:56.207Z,35.74
2019-02-22T15:53:27.938Z,35.31
2019-02-22T15:55:58.508Z,35.63
2019-02-22T15:58:29.100Z,35.70
2019-02-22T16:00:59.890Z,35.71
2019-02-22T16:03:50.182Z,36.52
2019-02-22T16:06:20.718Z,36.46
2019-02-22T16:08:52.565Z,36.77
2019-02-22T16:11:23.004Z,38.31
2019-02-22T16:13:54.223Z,37.64
2019-02-22T16:16:25.115Z,37.76
2019-02-22T16:18:56.704Z,38.50
2019-02-22T16:21:27.462Z,37.78
2019-02-22T16:23:58.183Z,38.75
2019-02-22T16:26:30.873Z,38.92
2019-02-22T16:29:01.782Z,40.10
2019-02-22T16:31:33.422Z,40.48
2019-02-22T16:34:03.799Z,41.17
2019-02-22T16:36:34.445Z,40.98
2019-02-22T16:39:06.554Z,39.60
2019-02-22T16:41:38.706Z,39.03
2019-02-22T16:44:09.264Z,40.86
2019-02-22T16:46:40.008Z,39.85
2019-02-22T16:49:10.500Z,40.16
2019-02-22T16:51:41.051Z,40.56
2019-02-22T16:54:13.349Z,39.63
2019-02-22T16:56:44.312Z,40.57
2019-02-22T16:59:15.281Z,41.21
2019-02-22T17:01:46.284Z,41.08
2019-02-22T17:04:18.773Z,41.08
2019-02-22T17:06:50.443Z,41.38
2019-02-22T17:09:22.185Z,41.07
2019-02-22T17:11:52.854Z,41.77
2019-02-22T17:14:24.197Z,40.70
2019-02-22T17:16:56.153Z,40.76
2019-02-22T17:19:28.644Z,41.38
2019-02-22T17:21:59.956Z,41.60
2019-02-22T17:24:30.394Z,41.88
2019-02-22T17:27:01.040Z,42.78
2019-02-22T17:29:32.106Z,42.81
2019-02-22T17:32:02.436Z,42.94
2019-02-22T17:34:33.433Z,42.55
2019-02-22T17:37:04.580Z,42.19
2019-02-22T17:39:36.441Z,42.46
2019-02-22T17:42:06.958Z,42.02
2019-02-22T17:44:37.660Z,42.11
2019-02-22T17:47:09.220Z,42.36
2019-02-22T17:49:39.851Z,42.89
2019-02-22T17:52:12.053Z,42.70
2019-02-22T17:54:42.772Z,42.63
2019-02-22T17:57:14.019Z,43.35
2019-02-22T17:59:44.615Z,43.66
2019-02-22T18:02:15.456Z,44.03
2019-02-22T18:04:45.937Z,44.80
2019-02-22T18:07:16.384Z,44.49
2019-02-22T18:09:48.077Z,44.96
2019-02-22T18:12:18.725Z,45.20
2019-02-22T18:14:49.454Z,45.37
2019-02-22T18:17:21.802Z,45.38
2019-02-22T18:19:52.152Z,45.96
2019-02-22T18:22:26.144Z,46.05
2019-02-22T18:24:55.885Z,46.14
2019-02-22T18:27:26.423Z,46.99
2019-02-22T18:29:57.845Z,45.81
2019-02-22T18:32:28.581Z,45.14
2019-02-22T18:34:59.437Z,45.11
2019-02-22T18:37:31.961Z,44.56
2019-02-22T18:40:02.607Z,44.09
2019-02-22T18:42:33.574Z,44.23
2019-02-22T18:45:05.526Z,44.59
2019-02-22T18:47:36.280Z,44.69
2019-02-22T18:50:07.716Z,44.43
2019-02-22T18:52:38.800Z,44.88
2019-02-22T18:55:09.440Z,44.75
2019-02-22T18:57:40.230Z,45.03
2019-02-22T19:00:13.598Z,44.89
2019-02-22T19:02:45.162Z,45.47
2019-02-22T19:05:16.069Z,45.78
2019-02-22T19:07:46.452Z,46.04
2019-02-22T19:10:17.261Z,46.94
2019-02-22T19:12:47.854Z,46.95
2019-02-22T19:15:18.407Z,47.01
2019-02-22T19:17:48.946Z,47.16
2019-02-22T19:20:19.576Z,47.57
2019-02-22T19:22:50.475Z,48.33
2019-02-22T19:25:21.190Z,48.57
2019-02-22T19:27:51.870Z,48.08
2019-02-22T19:30:22.613Z,47.86
2019-02-22T19:32:53.002Z,47.89
2019-02-22T19:35:23.732Z,47.54
2019-02-22T19:37:54.723Z,46.61
2019-02-22T19:40:26.279Z,46.93
2019-02-22T19:42:57.619Z,47.69
2019-02-22T19:45:28.703Z,47.66
2019-02-22T19:47:59.571Z,47.42
2019-02-22T19:50:40.820Z,47.39
2019-02-22T19:53:03.920Z,47.77
2019-02-22T19:55:35.331Z,47.91
2019-02-22T19:58:06.353Z,49.11
2019-02-22T20:00:36.840Z,48.83
2019-02-22T20:03:08.600Z,49.33
2019-02-22T20:05:39.729Z,49.21
2019-02-22T20:08:10.447Z,48.83
2019-02-22T20:10:41.310Z,49.70
2019-02-22T20:13:11.825Z,49.59
2019-02-22T20:15:42.926Z,51.75
2019-02-22T20:18:13.763Z,50.05
2019-02-22T20:20:44.507Z,50.81
2019-02-22T20:23:15.171Z,50.07
2019-02-22T20:25:45.553Z,51.08
2019-02-22T20:28:17.185Z,51.31
2019-02-22T20:30:48.415Z,50.94
2019-02-22T20:33:19.336Z,51.52
2019-02-22T20:35:49.688Z,51.75
2019-02-22T20:38:20.712Z,51.27
2019-02-22T20:40:51.522Z,51.87
2019-02-22T20:43:21.961Z,52.26
2019-02-22T20:45:53.000Z,51.06
2019-02-22T20:48:23.795Z,52.07
2019-02-22T20:50:54.843Z,51.76
2019-02-22T20:53:25.510Z,52.33
2019-02-22T20:55:57.731Z,51.82
2019-02-22T20:58:28.250Z,52.91
2019-02-22T21:01:01.271Z,52.65
2019-02-22T21:03:31.901Z,53.24
2019-02-22T21:06:03.006Z,52.76
2019-02-22T21:08:33.503Z,53.13
2019-02-22T21:11:04.543Z,53.79
2019-02-22T21:13:35.563Z,53.77
2019-02-22T21:16:06.144Z,53.43
2019-02-22T21:18:36.767Z,53.43
2019-02-22T21:21:07.251Z,53.91
2019-02-22T21:23:39.564Z,54.33
2019-02-22T21:26:10.410Z,54.04
2019-02-22T21:28:41.103Z,54.00
2019-02-22T21:31:11.774Z,54.52
2019-02-22T21:33:42.696Z,53.98
2019-02-22T21:36:13.379Z,54.81
2019-02-22T21:38:45.546Z,54.75
2019-02-22T21:41:17.774Z,54.59
2019-02-22T21:43:48.447Z,54.36
2019-02-22T21:46:19.684Z,54.95
2019-02-22T21:48:50.523Z,54.43
2019-02-22T21:51:22.162Z,54.99
2019-02-22T21:53:53.502Z,54.85
2019-02-22T21:56:26.886Z,54.97
2019-02-22T21:58:57.543Z,55.22
2019-02-22T22:01:28.467Z,54.74
2019-02-22T22:03:59.872Z,55.07
2019-02-22T22:06:30.541Z,55.27
2019-02-22T22:09:01.405Z,55.46
2019-02-22T22:11:33.781Z,55.35
2019-02-22T22:14:06.170Z,54.88
2019-02-22T22:16:36.681Z,55.18
2019-02-22T22:19:07.307Z,55.01
2019-02-22T22:21:38.091Z,55.46
2019-02-22T22:24:08.935Z,54.79
2019-02-22T22:26:39.665Z,55.28
2019-02-22T22:29:10.380Z,55.11
2019-02-22T22:31:41.709Z,55.77
2019-02-22T22:34:12.535Z,56.72
2019-02-22T22:36:43.765Z,56.10
2019-02-22T22:39:14.302Z,55.20
2019-02-22T22:41:45.035Z,56.16
2019-02-22T22:44:15.414Z,55.77
2019-02-22T22:46:46.874Z,55.89
2019-02-22T22:49:18.207Z,55.98
2019-02-22T22:51:48.919Z,55.90
2019-02-22T22:54:19.510Z,56.32
2019-02-22T22:56:50.054Z,55.93
2019-02-22T22:59:21.639Z,56.75
2019-02-22T23:01:53.133Z,57.08
2019-02-22T23:04:23.667Z,57.73
2019-02-22T23:06:54.895Z,58.04
2019-02-22T23:09:27.070Z,58.19
2019-02-22T23:11:57.566Z,57.99
2019-02-22T23:14:28.492Z,58.18
2019-02-22T23:16:59.184Z,58.24
2019-02-22T23:19:31.229Z,58.09
2019-02-22T23:22:02.229Z,58.18
2019-02-22T23:24:35.629Z,58.51
2019-02-22T23:27:07.516Z,58.90
2019-02-22T23:29:38.104Z,59.05
2019-02-22T23:32:10.236Z,58.86
2019-02-22T23:34:40.847Z,58.79
2019-02-22T23:37:13.728Z,58.61
2019-02-22T23:39:44.259Z,59.08
2019-02-22T23:42:16.879Z,59.55
2019-02-22T23:44:48.613Z,59.70
2019-02-22T23:47:19.841Z,60.09
2019-02-22T23:49:50.730Z,59.98
2019-02-22T23:52:21.680Z,60.42
2019-02-22T23:54:53.926Z,60.69
2019-02-22T23:57:24.522Z,60.43
2019-02-22T23:59:56.307Z,60.12
